Check out our new PWSWeather beta!
PWSweather.com
Personal Weather Stations
Station Observations
SD92115WX
El Cerrito Stoneybluff, San Diego, CA 92115

El Cerrito StoneybluffSan Diego, CA 92115

Lat: 32.754096, Lon: -117.066705

Elevation: 420

Station Type: Davis Vantage Vue

http://stoneybluff.com

High Low Average
Temperature 63.1°F17.3°C 55.8°F13.2°C 59.6°F15.3°C
Dew Point 57.7°F14.3°C 54.1°F12.3°C 55.3°F12.9°C
Winds 8.1 mph 13.0 kmh Calm Calm 2.0 mph SSW3.2 kmh SSW
Wind Gusts 13.9 mph22.4 kmh -- 4.0 mph6.4 kmh
Humidity 95% 76% 86%
Pressure 29.85 in1010.8 mb 29.73 in1006.8 mb -
Precipitation 0.04 in1.0 mm - -
Hour Temp Dew Point Humidity Winds Wind Gusts Pressure Precip Precip Rate Daily Precip Total
12:02 AM 58.6°F14.8°C 54.5°F12.5°C 86% 3.4 mph SSW5.5 kmh SSW 6.3 mph10.1 kmh 29.77 in1008.1 mb 0.00 in0.0 mm 0.00 in0.0 mm 0.00 in0.0 mm
12:07 AM 58.5°F14.7°C 54.9°F12.7°C 88% 3.1 mph SSW5.0 kmh SSW 6.3 mph10.1 kmh 29.77 in1008.1 mb 0.00 in0.0 mm 0.00 in0.0 mm 0.00 in0.0 mm
12:12 AM 58.3°F14.6°C 55.0°F12.8°C 89% 1.8 mph SSW2.9 kmh SSW 4.3 mph6.9 kmh 29.76 in1007.8 mb 0.00 in0.0 mm 0.00 in0.0 mm 0.00 in0.0 mm
12:17 AM 57.9°F14.4°C 55.0°F12.8°C 90% 1.1 mph W1.8 kmh W 5.4 mph8.7 kmh 29.76 in1007.8 mb 0.00 in0.0 mm 0.00 in0.0 mm 0.00 in0.0 mm
12:22 AM 57.6°F14.2°C 54.7°F12.6°C 90% 2.5 mph WSW4.0 kmh WSW 5.4 mph8.7 kmh 29.76 in1007.8 mb 0.00 in0.0 mm 0.00 in0.0 mm 0.00 in0.0 mm
12:27 AM 57.4°F14.1°C 54.9°F12.7°C 91% 0.7 mph SW1.1 kmh SW 4.3 mph6.9 kmh 29.75 in1007.5 mb 0.00 in0.0 mm 0.00 in0.0 mm 0.00 in0.0 mm
12:32 AM 57.4°F14.1°C 54.9°F12.7°C 91% Calm Calm -- 29.75 in1007.5 mb 0.00 in0.0 mm 0.00 in0.0 mm 0.00 in0.0 mm
12:37 AM 57.2°F14.0°C 54.7°F12.6°C 91% Calm Calm -- 29.75 in1007.5 mb 0.00 in0.0 mm 0.00 in0.0 mm 0.00 in0.0 mm
12:42 AM 57.0°F13.9°C 54.5°F12.5°C 91% Calm Calm -- 29.75 in1007.5 mb 0.00 in0.0 mm 0.00 in0.0 mm 0.00 in0.0 mm
12:47 AM 57.0°F13.9°C 54.7°F12.6°C 92% Calm Calm -- 29.74 in1007.1 mb 0.00 in0.0 mm 0.00 in0.0 mm 0.00 in0.0 mm
12:52 AM 56.8°F13.8°C 54.5°F12.5°C 92% Calm Calm -- 29.74 in1007.1 mb 0.00 in0.0 mm 0.00 in0.0 mm 0.00 in0.0 mm
12:57 AM 56.7°F13.7°C 54.3°F12.4°C 92% Calm Calm -- 29.74 in1007.1 mb 0.00 in0.0 mm 0.00 in0.0 mm 0.00 in0.0 mm
01:02 AM 56.7°F13.7°C 54.3°F12.4°C 92% Calm Calm -- 29.74 in1007.1 mb 0.00 in0.0 mm 0.00 in0.0 mm 0.00 in0.0 mm
01:07 AM 56.7°F13.7°C 54.3°F12.4°C 92% Calm Calm -- 29.74 in1007.1 mb 0.00 in0.0 mm 0.00 in0.0 mm 0.00 in0.0 mm
01:12 AM 56.7°F13.7°C 54.3°F12.4°C 92% Calm Calm -- 29.74 in1007.1 mb 0.00 in0.0 mm 0.00 in0.0 mm 0.00 in0.0 mm
01:17 AM 56.7°F13.7°C 54.3°F12.4°C 92% 0.2 mph WSW0.3 kmh WSW 1.1 mph1.8 kmh 29.74 in1007.1 mb 0.00 in0.0 mm 0.00 in0.0 mm 0.00 in0.0 mm
01:22 AM 56.7°F13.7°C 54.7°F12.6°C 93% 0.7 mph SW1.1 kmh SW 1.1 mph1.8 kmh 29.73 in1006.8 mb 0.00 in0.0 mm 0.00 in0.0 mm 0.00 in0.0 mm
01:27 AM 56.7°F13.7°C 54.7°F12.6°C 93% 0.4 mph WSW0.6 kmh WSW 2.0 mph3.2 kmh 29.73 in1006.8 mb 0.00 in0.0 mm 0.00 in0.0 mm 0.00 in0.0 mm
01:32 AM 56.7°F13.7°C 54.7°F12.6°C 93% 0.2 mph SW0.3 kmh SW 1.1 mph1.8 kmh 29.73 in1006.8 mb 0.00 in0.0 mm 0.00 in0.0 mm 0.00 in0.0 mm
01:37 AM 56.7°F13.7°C 54.3°F12.4°C 92% 2.2 mph SW3.5 kmh SW 4.3 mph6.9 kmh 29.73 in1006.8 mb 0.00 in0.0 mm 0.00 in0.0 mm 0.00 in0.0 mm
01:42 AM 56.7°F13.7°C 54.7°F12.6°C 93% 2.2 mph SW3.5 kmh SW 4.3 mph6.9 kmh 29.73 in1006.8 mb 0.00 in0.0 mm 0.00 in0.0 mm 0.00 in0.0 mm
01:47 AM 56.7°F13.7°C 54.7°F12.6°C 93% 1.1 mph SW1.8 kmh SW 3.1 mph5.0 kmh 29.73 in1006.8 mb 0.00 in0.0 mm 0.00 in0.0 mm 0.00 in0.0 mm
01:52 AM 56.8°F13.8°C 54.9°F12.7°C 93% 0.4 mph WSW0.6 kmh WSW 3.1 mph5.0 kmh 29.74 in1007.1 mb 0.00 in0.0 mm 0.00 in0.0 mm 0.00 in0.0 mm
01:57 AM 56.8°F13.8°C 54.9°F12.7°C 93% 0.4 mph WSW0.6 kmh WSW 2.0 mph3.2 kmh 29.74 in1007.1 mb 0.00 in0.0 mm 0.00 in0.0 mm 0.00 in0.0 mm
02:02 AM 56.7°F13.7°C 54.7°F12.6°C 93% Calm Calm -- 29.74 in1007.1 mb 0.00 in0.0 mm 0.00 in0.0 mm 0.00 in0.0 mm
02:07 AM 56.7°F13.7°C 54.7°F12.6°C 93% Calm Calm -- 29.74 in1007.1 mb 0.00 in0.0 mm 0.00 in0.0 mm 0.00 in0.0 mm
02:12 AM 56.5°F13.6°C 54.5°F12.5°C 93% Calm Calm -- 29.74 in1007.1 mb 0.00 in0.0 mm 0.00 in0.0 mm 0.00 in0.0 mm
02:17 AM 56.5°F13.6°C 54.5°F12.5°C 93% Calm Calm -- 29.74 in1007.1 mb 0.00 in0.0 mm 0.00 in0.0 mm 0.00 in0.0 mm
02:22 AM 56.3°F13.5°C 54.3°F12.4°C 93% Calm Calm -- 29.74 in1007.1 mb 0.00 in0.0 mm 0.00 in0.0 mm 0.00 in0.0 mm
02:27 AM 56.3°F13.5°C 54.7°F12.6°C 94% Calm Calm -- 29.74 in1007.1 mb 0.01 in0.3 mm 0.12 in3.0 mm 0.01 in0.3 mm
02:32 AM 56.3°F13.5°C 54.7°F12.6°C 94% Calm Calm -- 29.74 in1007.1 mb 0.01 in0.3 mm 0.00 in0.0 mm 0.01 in0.3 mm
02:37 AM 56.1°F13.4°C 54.5°F12.5°C 94% 0.7 mph SE1.1 kmh SE 1.1 mph1.8 kmh 29.74 in1007.1 mb 0.01 in0.3 mm 0.00 in0.0 mm 0.01 in0.3 mm
02:42 AM 56.1°F13.4°C 54.5°F12.5°C 94% Calm Calm -- 29.74 in1007.1 mb 0.02 in0.5 mm 0.12 in3.0 mm 0.02 in0.5 mm
02:47 AM 56.1°F13.4°C 54.5°F12.5°C 94% Calm Calm -- 29.74 in1007.1 mb 0.02 in0.5 mm 0.00 in0.0 mm 0.02 in0.5 mm
02:52 AM 56.1°F13.4°C 54.5°F12.5°C 94% Calm Calm -- 29.74 in1007.1 mb 0.02 in0.5 mm 0.00 in0.0 mm 0.02 in0.5 mm
02:57 AM 55.9°F13.3°C 54.3°F12.4°C 94% Calm Calm -- 29.74 in1007.1 mb 0.02 in0.5 mm 0.00 in0.0 mm 0.02 in0.5 mm
03:02 AM 55.9°F13.3°C 54.3°F12.4°C 94% Calm Calm -- 29.74 in1007.1 mb 0.02 in0.5 mm 0.00 in0.0 mm 0.02 in0.5 mm
03:07 AM 55.9°F13.3°C 54.3°F12.4°C 94% Calm Calm -- 29.73 in1006.8 mb 0.02 in0.5 mm 0.00 in0.0 mm 0.02 in0.5 mm
03:12 AM 55.9°F13.3°C 54.3°F12.4°C 94% Calm Calm -- 29.73 in1006.8 mb 0.02 in0.5 mm 0.00 in0.0 mm 0.02 in0.5 mm
03:17 AM 55.9°F13.3°C 54.3°F12.4°C 94% Calm Calm -- 29.74 in1007.1 mb 0.02 in0.5 mm 0.00 in0.0 mm 0.02 in0.5 mm
03:22 AM 55.9°F13.3°C 54.3°F12.4°C 94% Calm Calm -- 29.74 in1007.1 mb 0.02 in0.5 mm 0.00 in0.0 mm 0.02 in0.5 mm
03:27 AM 55.9°F13.3°C 54.3°F12.4°C 94% Calm Calm -- 29.74 in1007.1 mb 0.01 in0.3 mm 0.00 in0.0 mm 0.02 in0.5 mm
03:32 AM 55.9°F13.3°C 54.3°F12.4°C 94% Calm Calm -- 29.74 in1007.1 mb 0.01 in0.3 mm 0.00 in0.0 mm 0.02 in0.5 mm
03:37 AM 56.1°F13.4°C 54.5°F12.5°C 94% Calm Calm -- 29.74 in1007.1 mb 0.01 in0.3 mm 0.00 in0.0 mm 0.02 in0.5 mm
03:42 AM 56.1°F13.4°C 54.5°F12.5°C 94% Calm Calm -- 29.74 in1007.1 mb 0.00 in0.0 mm 0.00 in0.0 mm 0.02 in0.5 mm
03:47 AM 55.9°F13.3°C 54.3°F12.4°C 94% Calm Calm -- 29.74 in1007.1 mb 0.00 in0.0 mm 0.00 in0.0 mm 0.02 in0.5 mm
03:52 AM 55.9°F13.3°C 54.3°F12.4°C 94% Calm Calm -- 29.74 in1007.1 mb 0.00 in0.0 mm 0.00 in0.0 mm 0.02 in0.5 mm
03:57 AM 55.9°F13.3°C 54.3°F12.4°C 94% Calm Calm -- 29.73 in1006.8 mb 0.00 in0.0 mm 0.00 in0.0 mm 0.02 in0.5 mm
04:02 AM 55.9°F13.3°C 54.3°F12.4°C 94% Calm Calm -- 29.74 in1007.1 mb 0.00 in0.0 mm 0.00 in0.0 mm 0.02 in0.5 mm
04:07 AM 55.9°F13.3°C 54.3°F12.4°C 94% Calm Calm -- 29.74 in1007.1 mb 0.00 in0.0 mm 0.00 in0.0 mm 0.02 in0.5 mm
04:12 AM 55.9°F13.3°C 54.3°F12.4°C 94% Calm Calm -- 29.74 in1007.1 mb 0.00 in0.0 mm 0.00 in0.0 mm 0.02 in0.5 mm
04:17 AM 56.1°F13.4°C 54.7°F12.6°C 95% 0.4 mph SSE0.6 kmh SSE 2.0 mph3.2 kmh 29.74 in1007.1 mb 0.01 in0.3 mm 0.12 in3.0 mm 0.03 in0.8 mm
04:22 AM 56.3°F13.5°C 54.9°F12.7°C 95% 0.7 mph SSE1.1 kmh SSE 2.0 mph3.2 kmh 29.74 in1007.1 mb 0.01 in0.3 mm 0.00 in0.0 mm 0.03 in0.8 mm
04:27 AM 56.3°F13.5°C 54.7°F12.6°C 94% 0.2 mph SSE0.3 kmh SSE 2.0 mph3.2 kmh 29.74 in1007.1 mb 0.01 in0.3 mm 0.00 in0.0 mm 0.03 in0.8 mm
04:32 AM 56.1°F13.4°C 54.5°F12.5°C 94% Calm Calm 2.0 mph3.2 kmh 29.74 in1007.1 mb 0.01 in0.3 mm 0.00 in0.0 mm 0.03 in0.8 mm
04:37 AM 55.9°F13.3°C 54.3°F12.4°C 94% Calm Calm 1.1 mph1.8 kmh 29.74 in1007.1 mb 0.01 in0.3 mm 0.00 in0.0 mm 0.03 in0.8 mm
04:42 AM 55.9°F13.3°C 54.3°F12.4°C 94% Calm Calm 1.1 mph1.8 kmh 29.74 in1007.1 mb 0.01 in0.3 mm 0.00 in0.0 mm 0.03 in0.8 mm
04:47 AM 55.8°F13.2°C 54.1°F12.3°C 94% Calm Calm -- 29.74 in1007.1 mb 0.02 in0.5 mm 0.12 in3.0 mm 0.04 in1.0 mm
04:52 AM 55.8°F13.2°C 54.3°F12.4°C 95% Calm Calm -- 29.74 in1007.1 mb 0.02 in0.5 mm 0.00 in0.0 mm 0.04 in1.0 mm
04:57 AM 55.8°F13.2°C 54.3°F12.4°C 95% 0.2 mph ENE0.3 kmh ENE 1.1 mph1.8 kmh 29.74 in1007.1 mb 0.02 in0.5 mm 0.00 in0.0 mm 0.04 in1.0 mm
05:02 AM 55.8°F13.2°C 54.3°F12.4°C 95% Calm Calm -- 29.74 in1007.1 mb 0.02 in0.5 mm 0.00 in0.0 mm 0.04 in1.0 mm
05:07 AM 55.8°F13.2°C 54.3°F12.4°C 95% Calm Calm 1.1 mph1.8 kmh 29.75 in1007.5 mb 0.02 in0.5 mm 0.00 in0.0 mm 0.04 in1.0 mm
05:12 AM 55.8°F13.2°C 54.3°F12.4°C 95% Calm Calm -- 29.74 in1007.1 mb 0.02 in0.5 mm 0.00 in0.0 mm 0.04 in1.0 mm
05:17 AM 55.8°F13.2°C 54.3°F12.4°C 95% Calm Calm -- 29.75 in1007.5 mb 0.01 in0.3 mm 0.00 in0.0 mm 0.04 in1.0 mm
05:22 AM 55.8°F13.2°C 54.3°F12.4°C 95% Calm Calm 1.1 mph1.8 kmh 29.74 in1007.1 mb 0.01 in0.3 mm 0.00 in0.0 mm 0.04 in1.0 mm
05:27 AM 55.8°F13.2°C 54.3°F12.4°C 95% Calm Calm -- 29.75 in1007.5 mb 0.01 in0.3 mm 0.00 in0.0 mm 0.04 in1.0 mm
05:32 AM 55.8°F13.2°C 54.3°F12.4°C 95% Calm Calm 1.1 mph1.8 kmh 29.75 in1007.5 mb 0.01 in0.3 mm 0.00 in0.0 mm 0.04 in1.0 mm
05:37 AM 55.9°F13.3°C 54.5°F12.5°C 95% Calm Calm -- 29.75 in1007.5 mb 0.01 in0.3 mm 0.00 in0.0 mm 0.04 in1.0 mm
05:42 AM 55.9°F13.3°C 54.5°F12.5°C 95% Calm Calm -- 29.75 in1007.5 mb 0.01 in0.3 mm 0.00 in0.0 mm 0.04 in1.0 mm
05:47 AM 55.9°F13.3°C 54.5°F12.5°C 95% 0.4 mph SE0.6 kmh SE 3.1 mph5.0 kmh 29.75 in1007.5 mb 0.00 in0.0 mm 0.00 in0.0 mm 0.04 in1.0 mm
05:52 AM 56.1°F13.4°C 54.7°F12.6°C 95% 0.7 mph SE1.1 kmh SE 2.0 mph3.2 kmh 29.75 in1007.5 mb 0.00 in0.0 mm 0.00 in0.0 mm 0.04 in1.0 mm
05:57 AM 56.1°F13.4°C 54.7°F12.6°C 95% 0.2 mph E0.3 kmh E 2.0 mph3.2 kmh 29.75 in1007.5 mb 0.00 in0.0 mm 0.00 in0.0 mm 0.04 in1.0 mm
06:02 AM 56.1°F13.4°C 54.7°F12.6°C 95% 0.9 mph SSW1.4 kmh SSW 4.3 mph6.9 kmh 29.75 in1007.5 mb 0.00 in0.0 mm 0.00 in0.0 mm 0.04 in1.0 mm
06:07 AM 56.1°F13.4°C 54.7°F12.6°C 95% Calm Calm 2.0 mph3.2 kmh 29.76 in1007.8 mb 0.00 in0.0 mm 0.00 in0.0 mm 0.04 in1.0 mm
06:12 AM 56.1°F13.4°C 54.7°F12.6°C 95% Calm Calm -- 29.76 in1007.8 mb 0.00 in0.0 mm 0.00 in0.0 mm 0.04 in1.0 mm
06:17 AM 56.7°F13.7°C 55.2°F12.9°C 95% 0.2 mph ENE0.3 kmh ENE 1.1 mph1.8 kmh 29.76 in1007.8 mb 0.00 in0.0 mm 0.00 in0.0 mm 0.04 in1.0 mm
06:22 AM 56.8°F13.8°C 55.4°F13.0°C 95% Calm Calm -- 29.76 in1007.8 mb 0.00 in0.0 mm 0.00 in0.0 mm 0.04 in1.0 mm
06:27 AM 57.6°F14.2°C 56.1°F13.4°C 95% Calm Calm 1.1 mph1.8 kmh 29.76 in1007.8 mb 0.00 in0.0 mm 0.00 in0.0 mm 0.04 in1.0 mm
06:32 AM 58.3°F14.6°C 56.8°F13.8°C 95% Calm Calm -- 29.76 in1007.8 mb 0.00 in0.0 mm 0.00 in0.0 mm 0.04 in1.0 mm
06:37 AM 58.6°F14.8°C 56.8°F13.8°C 94% Calm Calm -- 29.76 in1007.8 mb 0.00 in0.0 mm 0.00 in0.0 mm 0.04 in1.0 mm
06:42 AM 59.2°F15.1°C 57.4°F14.1°C 94% 0.7 mph SSE1.1 kmh SSE 3.1 mph5.0 kmh 29.77 in1008.1 mb 0.00 in0.0 mm 0.00 in0.0 mm 0.04 in1.0 mm
06:47 AM 59.5°F15.3°C 57.7°F14.3°C 94% Calm Calm -- 29.76 in1007.8 mb 0.00 in0.0 mm 0.00 in0.0 mm 0.04 in1.0 mm
06:52 AM 59.7°F15.4°C 57.7°F14.3°C 93% Calm Calm 1.1 mph1.8 kmh 29.76 in1007.8 mb 0.00 in0.0 mm 0.00 in0.0 mm 0.04 in1.0 mm
06:57 AM 59.7°F15.4°C 57.4°F14.1°C 92% 1.1 mph SE1.8 kmh SE 5.4 mph8.7 kmh 29.77 in1008.1 mb 0.00 in0.0 mm 0.00 in0.0 mm 0.04 in1.0 mm
07:02 AM 59.7°F15.4°C 57.0°F13.9°C 91% 1.3 mph SSW2.1 kmh SSW 4.3 mph6.9 kmh 29.77 in1008.1 mb 0.00 in0.0 mm 0.00 in0.0 mm 0.04 in1.0 mm
07:07 AM 59.7°F15.4°C 57.0°F13.9°C 91% 1.6 mph SSW2.6 kmh SSW 4.3 mph6.9 kmh 29.77 in1008.1 mb 0.00 in0.0 mm 0.00 in0.0 mm 0.04 in1.0 mm
07:12 AM 59.7°F15.4°C 56.5°F13.6°C 89% 2.2 mph SSW3.5 kmh SSW 6.3 mph10.1 kmh 29.77 in1008.1 mb 0.00 in0.0 mm 0.00 in0.0 mm 0.04 in1.0 mm
07:17 AM 60.3°F15.7°C 57.4°F14.1°C 90% 0.7 mph W1.1 kmh W 4.3 mph6.9 kmh 29.77 in1008.1 mb 0.00 in0.0 mm 0.00 in0.0 mm 0.04 in1.0 mm
07:22 AM 60.6°F15.9°C 57.4°F14.1°C 89% 1.1 mph SW1.8 kmh SW 5.4 mph8.7 kmh 29.77 in1008.1 mb 0.00 in0.0 mm 0.00 in0.0 mm 0.04 in1.0 mm
07:27 AM 60.6°F15.9°C 56.7°F13.7°C 87% 2.9 mph SSE4.7 kmh SSE 6.3 mph10.1 kmh 29.77 in1008.1 mb 0.00 in0.0 mm 0.00 in0.0 mm 0.04 in1.0 mm
07:32 AM 60.6°F15.9°C 56.5°F13.6°C 86% 2.0 mph SE3.2 kmh SE 5.4 mph8.7 kmh 29.77 in1008.1 mb 0.00 in0.0 mm 0.00 in0.0 mm 0.04 in1.0 mm
07:37 AM 60.6°F15.9°C 56.5°F13.6°C 86% 0.2 mph S0.3 kmh S 5.4 mph8.7 kmh 29.78 in1008.5 mb 0.00 in0.0 mm 0.00 in0.0 mm 0.04 in1.0 mm
07:42 AM 60.6°F15.9°C 56.5°F13.6°C 86% 3.1 mph ESE5.0 kmh ESE 5.4 mph8.7 kmh 29.77 in1008.1 mb 0.00 in0.0 mm 0.00 in0.0 mm 0.04 in1.0 mm
07:47 AM 60.6°F15.9°C 56.5°F13.6°C 86% 1.8 mph WSW2.9 kmh WSW 5.4 mph8.7 kmh 29.78 in1008.5 mb 0.00 in0.0 mm 0.00 in0.0 mm 0.04 in1.0 mm
07:52 AM 60.6°F15.9°C 56.5°F13.6°C 86% 3.8 mph WSW6.1 kmh WSW 6.3 mph10.1 kmh 29.78 in1008.5 mb 0.00 in0.0 mm 0.00 in0.0 mm 0.04 in1.0 mm
07:57 AM 60.3°F15.7°C 56.7°F13.7°C 88% 4.5 mph SW7.2 kmh SW 7.4 mph11.9 kmh 29.78 in1008.5 mb 0.00 in0.0 mm 0.00 in0.0 mm 0.04 in1.0 mm
08:02 AM 59.7°F15.4°C 56.5°F13.6°C 89% 3.8 mph WSW6.1 kmh WSW 7.4 mph11.9 kmh 29.78 in1008.5 mb 0.00 in0.0 mm 0.00 in0.0 mm 0.04 in1.0 mm
08:07 AM 59.4°F15.2°C 56.1°F13.4°C 89% 4.3 mph SW6.9 kmh SW 10.5 mph16.9 kmh 29.78 in1008.5 mb 0.00 in0.0 mm 0.00 in0.0 mm 0.04 in1.0 mm
08:12 AM 59.2°F15.1°C 56.3°F13.5°C 90% 2.5 mph SW4.0 kmh SW 6.3 mph10.1 kmh 29.78 in1008.5 mb 0.00 in0.0 mm 0.00 in0.0 mm 0.04 in1.0 mm
08:17 AM 59.0°F15.0°C 56.1°F13.4°C 90% 5.6 mph S9.0 kmh S 9.6 mph15.4 kmh 29.78 in1008.5 mb 0.00 in0.0 mm 0.00 in0.0 mm 0.04 in1.0 mm
08:22 AM 58.8°F14.9°C 56.1°F13.4°C 91% 3.4 mph SW5.5 kmh SW 7.4 mph11.9 kmh 29.78 in1008.5 mb 0.00 in0.0 mm 0.00 in0.0 mm 0.04 in1.0 mm
08:27 AM 58.8°F14.9°C 55.9°F13.3°C 90% 3.6 mph SSW5.8 kmh SSW 7.4 mph11.9 kmh 29.78 in1008.5 mb 0.00 in0.0 mm 0.00 in0.0 mm 0.04 in1.0 mm
08:32 AM 58.6°F14.8°C 55.9°F13.3°C 91% 2.9 mph SSW4.7 kmh SSW 5.4 mph8.7 kmh 29.78 in1008.5 mb 0.00 in0.0 mm 0.00 in0.0 mm 0.04 in1.0 mm
08:37 AM 58.6°F14.8°C 55.9°F13.3°C 91% 3.1 mph SW5.0 kmh SW 6.3 mph10.1 kmh 29.79 in1008.8 mb 0.00 in0.0 mm 0.00 in0.0 mm 0.04 in1.0 mm
08:42 AM 58.8°F14.9°C 56.5°F13.6°C 92% 2.7 mph WSW4.3 kmh WSW 6.3 mph10.1 kmh 29.79 in1008.8 mb 0.00 in0.0 mm 0.00 in0.0 mm 0.04 in1.0 mm
08:47 AM 59.0°F15.0°C 56.3°F13.5°C 91% 3.6 mph SW5.8 kmh SW 6.3 mph10.1 kmh 29.79 in1008.8 mb 0.00 in0.0 mm 0.00 in0.0 mm 0.04 in1.0 mm
08:52 AM 59.0°F15.0°C 56.3°F13.5°C 91% 2.7 mph SW4.3 kmh SW 7.4 mph11.9 kmh 29.79 in1008.8 mb 0.00 in0.0 mm 0.00 in0.0 mm 0.04 in1.0 mm
08:57 AM 59.2°F15.1°C 56.5°F13.6°C 91% 3.6 mph WSW5.8 kmh WSW 5.4 mph8.7 kmh 29.79 in1008.8 mb 0.00 in0.0 mm 0.00 in0.0 mm 0.04 in1.0 mm
09:02 AM 59.4°F15.2°C 56.5°F13.6°C 90% 4.5 mph SSW7.2 kmh SSW 6.3 mph10.1 kmh 29.79 in1008.8 mb 0.00 in0.0 mm 0.00 in0.0 mm 0.04 in1.0 mm
09:07 AM 59.5°F15.3°C 56.3°F13.5°C 89% 2.2 mph SSW3.5 kmh SSW 5.4 mph8.7 kmh 29.79 in1008.8 mb 0.00 in0.0 mm 0.00 in0.0 mm 0.04 in1.0 mm
09:12 AM 59.7°F15.4°C 56.5°F13.6°C 89% 1.3 mph SW2.1 kmh SW 3.1 mph5.0 kmh 29.79 in1008.8 mb 0.00 in0.0 mm 0.00 in0.0 mm 0.04 in1.0 mm
09:17 AM 60.4°F15.8°C 57.6°F14.2°C 90% 0.4 mph SW0.6 kmh SW 3.1 mph5.0 kmh 29.79 in1008.8 mb 0.00 in0.0 mm 0.00 in0.0 mm 0.04 in1.0 mm
09:22 AM 61.2°F16.2°C 57.6°F14.2°C 88% 0.7 mph SE1.1 kmh SE 5.4 mph8.7 kmh 29.79 in1008.8 mb 0.00 in0.0 mm 0.00 in0.0 mm 0.04 in1.0 mm
09:27 AM 61.7°F16.5°C 57.4°F14.1°C 86% 2.7 mph SSW4.3 kmh SSW 7.4 mph11.9 kmh 29.79 in1008.8 mb 0.00 in0.0 mm 0.00 in0.0 mm 0.04 in1.0 mm
09:32 AM 62.1°F16.7°C 57.2°F14.0°C 84% 0.9 mph S1.4 kmh S 6.3 mph10.1 kmh 29.79 in1008.8 mb 0.00 in0.0 mm 0.00 in0.0 mm 0.04 in1.0 mm
09:37 AM 62.6°F17.0°C 57.7°F14.3°C 84% 0.4 mph S0.6 kmh S 3.1 mph5.0 kmh 29.79 in1008.8 mb 0.00 in0.0 mm 0.00 in0.0 mm 0.04 in1.0 mm
09:42 AM 62.6°F17.0°C 57.0°F13.9°C 82% 1.8 mph SE2.9 kmh SE 5.4 mph8.7 kmh 29.79 in1008.8 mb 0.00 in0.0 mm 0.00 in0.0 mm 0.04 in1.0 mm
09:47 AM 62.6°F17.0°C 56.3°F13.5°C 80% 2.9 mph E4.7 kmh E 6.3 mph10.1 kmh 29.79 in1008.8 mb 0.00 in0.0 mm 0.00 in0.0 mm 0.04 in1.0 mm
09:52 AM 62.8°F17.1°C 56.8°F13.8°C 81% 2.2 mph ESE3.5 kmh ESE 6.3 mph10.1 kmh 29.79 in1008.8 mb 0.00 in0.0 mm 0.00 in0.0 mm 0.04 in1.0 mm
09:57 AM 62.2°F16.8°C 56.3°F13.5°C 81% 6.3 mph SW10.1 kmh SW 10.5 mph16.9 kmh 29.79 in1008.8 mb 0.00 in0.0 mm 0.00 in0.0 mm 0.04 in1.0 mm
10:02 AM 61.9°F16.6°C 56.7°F13.7°C 83% 4.9 mph SSW7.9 kmh SSW 9.6 mph15.4 kmh 29.79 in1008.8 mb 0.00 in0.0 mm 0.00 in0.0 mm 0.04 in1.0 mm
10:07 AM 61.9°F16.6°C 57.6°F14.2°C 86% 3.8 mph SW6.1 kmh SW 8.5 mph13.7 kmh 29.79 in1008.8 mb 0.00 in0.0 mm 0.00 in0.0 mm 0.04 in1.0 mm
10:12 AM 61.9°F16.6°C 57.0°F13.9°C 84% 5.8 mph SW9.3 kmh SW 10.5 mph16.9 kmh 29.79 in1008.8 mb 0.00 in0.0 mm 0.00 in0.0 mm 0.04 in1.0 mm
10:17 AM 62.1°F16.7°C 56.8°F13.8°C 83% 6.0 mph SW9.7 kmh SW 9.6 mph15.4 kmh 29.79 in1008.8 mb 0.00 in0.0 mm 0.00 in0.0 mm 0.04 in1.0 mm
10:22 AM 62.1°F16.7°C 57.2°F14.0°C 84% 4.5 mph SSW7.2 kmh SSW 8.5 mph13.7 kmh 29.79 in1008.8 mb 0.00 in0.0 mm 0.00 in0.0 mm 0.04 in1.0 mm
10:27 AM 62.2°F16.8°C 56.7°F13.7°C 82% 5.8 mph SW9.3 kmh SW 11.6 mph18.7 kmh 29.79 in1008.8 mb 0.00 in0.0 mm 0.00 in0.0 mm 0.04 in1.0 mm
10:32 AM 61.9°F16.6°C 56.3°F13.5°C 82% 6.7 mph WSW10.8 kmh WSW 10.5 mph16.9 kmh 29.79 in1008.8 mb 0.00 in0.0 mm 0.00 in0.0 mm 0.04 in1.0 mm
10:37 AM 62.1°F16.7°C 56.8°F13.8°C 83% 5.4 mph S8.7 kmh S 11.6 mph18.7 kmh 29.79 in1008.8 mb 0.00 in0.0 mm 0.00 in0.0 mm 0.04 in1.0 mm
10:42 AM 62.1°F16.7°C 56.1°F13.4°C 81% 7.8 mph SSW12.6 kmh SSW 12.8 mph20.6 kmh 29.79 in1008.8 mb 0.00 in0.0 mm 0.00 in0.0 mm 0.04 in1.0 mm
10:47 AM 62.2°F16.8°C 55.9°F13.3°C 80% 8.1 mph SSW13.0 kmh SSW 13.9 mph22.4 kmh 29.79 in1008.8 mb 0.00 in0.0 mm 0.00 in0.0 mm 0.04 in1.0 mm
10:52 AM 62.2°F16.8°C 55.9°F13.3°C 80% 7.6 mph SW12.2 kmh SW 11.6 mph18.7 kmh 29.79 in1008.8 mb 0.00 in0.0 mm 0.00 in0.0 mm 0.04 in1.0 mm
10:57 AM 62.2°F16.8°C 55.9°F13.3°C 80% 7.8 mph SW12.6 kmh SW 11.6 mph18.7 kmh 29.79 in1008.8 mb 0.00 in0.0 mm 0.00 in0.0 mm 0.04 in1.0 mm
11:02 AM 62.1°F16.7°C 55.8°F13.2°C 80% 6.3 mph WSW10.1 kmh WSW 11.6 mph18.7 kmh 29.79 in1008.8 mb 0.00 in0.0 mm 0.00 in0.0 mm 0.04 in1.0 mm
11:07 AM 61.9°F16.6°C 55.9°F13.3°C 81% 4.5 mph SW7.2 kmh SW 10.5 mph16.9 kmh 29.79 in1008.8 mb 0.00 in0.0 mm 0.00 in0.0 mm 0.04 in1.0 mm
11:12 AM 61.9°F16.6°C 55.9°F13.3°C 81% 6.5 mph SSW10.5 kmh SSW 10.5 mph16.9 kmh 29.79 in1008.8 mb 0.00 in0.0 mm 0.00 in0.0 mm 0.04 in1.0 mm
11:17 AM 61.3°F16.3°C 55.8°F13.2°C 82% 5.4 mph SW8.7 kmh SW 9.6 mph15.4 kmh 29.80 in1009.1 mb 0.00 in0.0 mm 0.00 in0.0 mm 0.04 in1.0 mm
11:22 AM 61.5°F16.4°C 56.3°F13.5°C 83% 2.9 mph SW4.7 kmh SW 7.4 mph11.9 kmh 29.79 in1008.8 mb 0.00 in0.0 mm 0.00 in0.0 mm 0.04 in1.0 mm
11:27 AM 61.5°F16.4°C 56.3°F13.5°C 83% 6.3 mph SSW10.1 kmh SSW 11.6 mph18.7 kmh 29.79 in1008.8 mb 0.00 in0.0 mm 0.00 in0.0 mm 0.04 in1.0 mm
11:32 AM 61.7°F16.5°C 56.5°F13.6°C 83% 5.1 mph WSW8.2 kmh WSW 10.5 mph16.9 kmh 29.79 in1008.8 mb 0.00 in0.0 mm 0.00 in0.0 mm 0.04 in1.0 mm
11:37 AM 61.9°F16.6°C 55.6°F13.1°C 80% 6.7 mph SW10.8 kmh SW 11.6 mph18.7 kmh 29.79 in1008.8 mb 0.00 in0.0 mm 0.00 in0.0 mm 0.04 in1.0 mm
11:42 AM 61.9°F16.6°C 55.2°F12.9°C 79% 6.0 mph SW9.7 kmh SW 10.5 mph16.9 kmh 29.80 in1009.1 mb 0.00 in0.0 mm 0.00 in0.0 mm 0.04 in1.0 mm
11:47 AM 61.9°F16.6°C 55.2°F12.9°C 79% 6.7 mph SSW10.8 kmh SSW 12.8 mph20.6 kmh 29.80 in1009.1 mb 0.00 in0.0 mm 0.00 in0.0 mm 0.04 in1.0 mm
11:52 AM 61.9°F16.6°C 55.2°F12.9°C 79% 5.1 mph SSW8.2 kmh SSW 9.6 mph15.4 kmh 29.79 in1008.8 mb 0.00 in0.0 mm 0.00 in0.0 mm 0.04 in1.0 mm
11:57 AM 62.1°F16.7°C 55.4°F13.0°C 79% 6.0 mph SW9.7 kmh SW 8.5 mph13.7 kmh 29.79 in1008.8 mb 0.00 in0.0 mm 0.00 in0.0 mm 0.04 in1.0 mm
12:02 PM 61.9°F16.6°C 55.2°F12.9°C 79% 5.4 mph SSW8.7 kmh SSW 9.6 mph15.4 kmh 29.79 in1008.8 mb 0.00 in0.0 mm 0.00 in0.0 mm 0.04 in1.0 mm
12:07 PM 61.5°F16.4°C 54.9°F12.7°C 79% 4.7 mph SW7.6 kmh SW 9.6 mph15.4 kmh 29.79 in1008.8 mb 0.00 in0.0 mm 0.00 in0.0 mm 0.04 in1.0 mm
12:12 PM 61.5°F16.4°C 54.9°F12.7°C 79% 2.5 mph SSW4.0 kmh SSW 6.3 mph10.1 kmh 29.79 in1008.8 mb 0.00 in0.0 mm 0.00 in0.0 mm 0.04 in1.0 mm
12:17 PM 61.5°F16.4°C 54.9°F12.7°C 79% 5.1 mph SW8.2 kmh SW 9.6 mph15.4 kmh 29.79 in1008.8 mb 0.00 in0.0 mm 0.00 in0.0 mm 0.04 in1.0 mm
12:22 PM 61.3°F16.3°C 55.0°F12.8°C 80% 2.9 mph SW4.7 kmh SW 8.5 mph13.7 kmh 29.79 in1008.8 mb 0.00 in0.0 mm 0.00 in0.0 mm 0.04 in1.0 mm
12:27 PM 61.3°F16.3°C 55.0°F12.8°C 80% 2.7 mph WSW4.3 kmh WSW 5.4 mph8.7 kmh 29.79 in1008.8 mb 0.00 in0.0 mm 0.00 in0.0 mm 0.04 in1.0 mm
12:32 PM 61.3°F16.3°C 55.0°F12.8°C 80% 4.9 mph SW7.9 kmh SW 9.6 mph15.4 kmh 29.79 in1008.8 mb 0.00 in0.0 mm 0.00 in0.0 mm 0.04 in1.0 mm
12:37 PM 61.3°F16.3°C 55.4°F13.0°C 81% 3.6 mph S5.8 kmh S 9.6 mph15.4 kmh 29.79 in1008.8 mb 0.00 in0.0 mm 0.00 in0.0 mm 0.04 in1.0 mm
12:42 PM 61.3°F16.3°C 55.4°F13.0°C 81% 4.3 mph SW6.9 kmh SW 8.5 mph13.7 kmh 29.79 in1008.8 mb 0.00 in0.0 mm 0.00 in0.0 mm 0.04 in1.0 mm
12:47 PM 61.3°F16.3°C 55.0°F12.8°C 80% 3.6 mph WSW5.8 kmh WSW 7.4 mph11.9 kmh 29.79 in1008.8 mb 0.00 in0.0 mm 0.00 in0.0 mm 0.04 in1.0 mm
12:52 PM 61.3°F16.3°C 54.9°F12.7°C 79% 5.4 mph W8.7 kmh W 9.6 mph15.4 kmh 29.78 in1008.5 mb 0.00 in0.0 mm 0.00 in0.0 mm 0.04 in1.0 mm
12:57 PM 61.3°F16.3°C 54.9°F12.7°C 79% 4.9 mph SW7.9 kmh SW 8.5 mph13.7 kmh 29.78 in1008.5 mb 0.00 in0.0 mm 0.00 in0.0 mm 0.04 in1.0 mm
01:02 PM 61.7°F16.5°C 55.4°F13.0°C 80% 4.3 mph WSW6.9 kmh WSW 7.4 mph11.9 kmh 29.78 in1008.5 mb 0.00 in0.0 mm 0.00 in0.0 mm 0.04 in1.0 mm
01:07 PM 61.5°F16.4°C 55.6°F13.1°C 81% 5.8 mph SW9.3 kmh SW 10.5 mph16.9 kmh 29.78 in1008.5 mb 0.00 in0.0 mm 0.00 in0.0 mm 0.04 in1.0 mm
01:12 PM 61.3°F16.3°C 55.4°F13.0°C 81% 5.8 mph SW9.3 kmh SW 9.6 mph15.4 kmh 29.78 in1008.5 mb 0.00 in0.0 mm 0.00 in0.0 mm 0.04 in1.0 mm
01:17 PM 61.3°F16.3°C 55.4°F13.0°C 81% 4.7 mph W7.6 kmh W 8.5 mph13.7 kmh 29.78 in1008.5 mb 0.00 in0.0 mm 0.00 in0.0 mm 0.04 in1.0 mm
01:22 PM 61.3°F16.3°C 55.4°F13.0°C 81% 5.8 mph WSW9.3 kmh WSW 9.6 mph15.4 kmh 29.78 in1008.5 mb 0.00 in0.0 mm 0.00 in0.0 mm 0.04 in1.0 mm
01:27 PM 61.3°F16.3°C 55.4°F13.0°C 81% 4.7 mph SW7.6 kmh SW 9.6 mph15.4 kmh 29.79 in1008.8 mb 0.00 in0.0 mm 0.00 in0.0 mm 0.04 in1.0 mm
01:32 PM 61.3°F16.3°C 55.0°F12.8°C 80% 4.5 mph SW7.2 kmh SW 8.5 mph13.7 kmh 29.78 in1008.5 mb 0.00 in0.0 mm 0.00 in0.0 mm 0.04 in1.0 mm
01:37 PM 61.5°F16.4°C 55.9°F13.3°C 82% 3.8 mph WSW6.1 kmh WSW 8.5 mph13.7 kmh 29.79 in1008.8 mb 0.00 in0.0 mm 0.00 in0.0 mm 0.04 in1.0 mm
01:42 PM 61.5°F16.4°C 55.6°F13.1°C 81% 6.3 mph SW10.1 kmh SW 10.5 mph16.9 kmh 29.79 in1008.8 mb 0.00 in0.0 mm 0.00 in0.0 mm 0.04 in1.0 mm
01:47 PM 61.3°F16.3°C 55.8°F13.2°C 82% 3.4 mph SW5.5 kmh SW 7.4 mph11.9 kmh 29.78 in1008.5 mb 0.00 in0.0 mm 0.00 in0.0 mm 0.04 in1.0 mm
01:52 PM 61.2°F16.2°C 55.6°F13.1°C 82% 3.8 mph SSW6.1 kmh SSW 9.6 mph15.4 kmh 29.79 in1008.8 mb 0.00 in0.0 mm 0.00 in0.0 mm 0.04 in1.0 mm
01:57 PM 61.0°F16.1°C 55.8°F13.2°C 83% 4.0 mph WSW6.4 kmh WSW 6.3 mph10.1 kmh 29.79 in1008.8 mb 0.00 in0.0 mm 0.00 in0.0 mm 0.04 in1.0 mm
02:02 PM 61.0°F16.1°C 55.8°F13.2°C 83% 5.1 mph SW8.2 kmh SW 9.6 mph15.4 kmh 29.79 in1008.8 mb 0.00 in0.0 mm 0.00 in0.0 mm 0.04 in1.0 mm
02:07 PM 60.8°F16.0°C 55.6°F13.1°C 83% 5.1 mph SSW8.2 kmh SSW 8.5 mph13.7 kmh 29.78 in1008.5 mb 0.00 in0.0 mm 0.00 in0.0 mm 0.04 in1.0 mm
02:12 PM 60.8°F16.0°C 55.6°F13.1°C 83% 3.8 mph SSW6.1 kmh SSW 6.3 mph10.1 kmh 29.79 in1008.8 mb 0.00 in0.0 mm 0.00 in0.0 mm 0.04 in1.0 mm
02:17 PM 61.0°F16.1°C 55.8°F13.2°C 83% 2.7 mph SW4.3 kmh SW 6.3 mph10.1 kmh 29.78 in1008.5 mb 0.00 in0.0 mm 0.00 in0.0 mm 0.04 in1.0 mm
02:22 PM 61.3°F16.3°C 56.1°F13.4°C 83% 4.3 mph S6.9 kmh S 10.5 mph16.9 kmh 29.79 in1008.8 mb 0.00 in0.0 mm 0.00 in0.0 mm 0.04 in1.0 mm
02:27 PM 61.5°F16.4°C 55.9°F13.3°C 82% 2.9 mph SW4.7 kmh SW 8.5 mph13.7 kmh 29.79 in1008.8 mb 0.00 in0.0 mm 0.00 in0.0 mm 0.04 in1.0 mm
02:32 PM 61.9°F16.6°C 55.9°F13.3°C 81% 4.3 mph WSW6.9 kmh WSW 8.5 mph13.7 kmh 29.79 in1008.8 mb 0.00 in0.0 mm 0.00 in0.0 mm 0.04 in1.0 mm
02:37 PM 61.9°F16.6°C 55.9°F13.3°C 81% 5.6 mph SW9.0 kmh SW 9.6 mph15.4 kmh 29.79 in1008.8 mb 0.00 in0.0 mm 0.00 in0.0 mm 0.04 in1.0 mm
02:42 PM 61.9°F16.6°C 55.9°F13.3°C 81% 4.9 mph SW7.9 kmh SW 9.6 mph15.4 kmh 29.79 in1008.8 mb 0.00 in0.0 mm 0.00 in0.0 mm 0.04 in1.0 mm
02:47 PM 62.1°F16.7°C 55.8°F13.2°C 80% 4.3 mph SW6.9 kmh SW 8.5 mph13.7 kmh 29.79 in1008.8 mb 0.00 in0.0 mm 0.00 in0.0 mm 0.04 in1.0 mm
02:52 PM 62.1°F16.7°C 55.4°F13.0°C 79% 4.5 mph SW7.2 kmh SW 8.5 mph13.7 kmh 29.79 in1008.8 mb 0.00 in0.0 mm 0.00 in0.0 mm 0.04 in1.0 mm
02:57 PM 62.1°F16.7°C 55.8°F13.2°C 80% 2.7 mph WSW4.3 kmh WSW 10.5 mph16.9 kmh 29.79 in1008.8 mb 0.00 in0.0 mm 0.00 in0.0 mm 0.04 in1.0 mm
03:02 PM 62.2°F16.8°C 55.9°F13.3°C 80% 3.6 mph SW5.8 kmh SW 8.5 mph13.7 kmh 29.79 in1008.8 mb 0.00 in0.0 mm 0.00 in0.0 mm 0.04 in1.0 mm
03:07 PM 62.6°F17.0°C 56.3°F13.5°C 80% 2.5 mph WNW4.0 kmh WNW 9.6 mph15.4 kmh 29.79 in1008.8 mb 0.00 in0.0 mm 0.00 in0.0 mm 0.04 in1.0 mm
03:12 PM 62.8°F17.1°C 56.1°F13.4°C 79% 2.7 mph SW4.3 kmh SW 7.4 mph11.9 kmh 29.80 in1009.1 mb 0.00 in0.0 mm 0.00 in0.0 mm 0.04 in1.0 mm
03:17 PM 62.4°F16.9°C 55.8°F13.2°C 79% 2.7 mph SSW4.3 kmh SSW 7.4 mph11.9 kmh 29.79 in1008.8 mb 0.00 in0.0 mm 0.00 in0.0 mm 0.04 in1.0 mm
03:22 PM 62.4°F16.9°C 55.8°F13.2°C 79% 2.9 mph SW4.7 kmh SW 5.4 mph8.7 kmh 29.79 in1008.8 mb 0.00 in0.0 mm 0.00 in0.0 mm 0.04 in1.0 mm
03:27 PM 62.4°F16.9°C 56.1°F13.4°C 80% 3.8 mph S6.1 kmh S 6.3 mph10.1 kmh 29.79 in1008.8 mb 0.00 in0.0 mm 0.00 in0.0 mm 0.04 in1.0 mm
03:32 PM 62.2°F16.8°C 55.9°F13.3°C 80% 3.4 mph SW5.5 kmh SW 7.4 mph11.9 kmh 29.80 in1009.1 mb 0.00 in0.0 mm 0.00 in0.0 mm 0.04 in1.0 mm
03:37 PM 62.2°F16.8°C 55.9°F13.3°C 80% 1.8 mph SW2.9 kmh SW 6.3 mph10.1 kmh 29.80 in1009.1 mb 0.00 in0.0 mm 0.00 in0.0 mm 0.04 in1.0 mm
03:42 PM 62.4°F16.9°C 56.1°F13.4°C 80% 1.3 mph SSW2.1 kmh SSW 4.3 mph6.9 kmh 29.80 in1009.1 mb 0.00 in0.0 mm 0.00 in0.0 mm 0.04 in1.0 mm
03:47 PM 62.6°F17.0°C 56.3°F13.5°C 80% 1.3 mph SW2.1 kmh SW 3.1 mph5.0 kmh 29.79 in1008.8 mb 0.00 in0.0 mm 0.00 in0.0 mm 0.04 in1.0 mm
03:52 PM 62.8°F17.1°C 56.8°F13.8°C 81% 2.2 mph SSW3.5 kmh SSW 7.4 mph11.9 kmh 29.80 in1009.1 mb 0.00 in0.0 mm 0.00 in0.0 mm 0.04 in1.0 mm
03:57 PM 62.8°F17.1°C 56.5°F13.6°C 80% 2.2 mph NW3.5 kmh NW 7.4 mph11.9 kmh 29.80 in1009.1 mb 0.00 in0.0 mm 0.00 in0.0 mm 0.04 in1.0 mm
04:02 PM 62.8°F17.1°C 56.1°F13.4°C 79% 2.5 mph WSW4.0 kmh WSW 5.4 mph8.7 kmh 29.80 in1009.1 mb 0.00 in0.0 mm 0.00 in0.0 mm 0.04 in1.0 mm
04:07 PM 62.8°F17.1°C 56.1°F13.4°C 79% 1.8 mph SW2.9 kmh SW 4.3 mph6.9 kmh 29.80 in1009.1 mb 0.00 in0.0 mm 0.00 in0.0 mm 0.04 in1.0 mm
04:12 PM 62.8°F17.1°C 56.1°F13.4°C 79% 2.0 mph W3.2 kmh W 4.3 mph6.9 kmh 29.80 in1009.1 mb 0.00 in0.0 mm 0.00 in0.0 mm 0.04 in1.0 mm
04:17 PM 63.0°F17.2°C 55.9°F13.3°C 78% 2.5 mph SW4.0 kmh SW 5.4 mph8.7 kmh 29.80 in1009.1 mb 0.00 in0.0 mm 0.00 in0.0 mm 0.04 in1.0 mm
04:22 PM 63.1°F17.3°C 55.8°F13.2°C 77% 3.4 mph SSW5.5 kmh SSW 6.3 mph10.1 kmh 29.80 in1009.1 mb 0.00 in0.0 mm 0.00 in0.0 mm 0.04 in1.0 mm
04:27 PM 63.0°F17.2°C 55.6°F13.1°C 77% 3.6 mph WSW5.8 kmh WSW 8.5 mph13.7 kmh 29.80 in1009.1 mb 0.00 in0.0 mm 0.00 in0.0 mm 0.04 in1.0 mm
04:32 PM 62.8°F17.1°C 55.0°F12.8°C 76% 3.1 mph SW5.0 kmh SW 8.5 mph13.7 kmh 29.80 in1009.1 mb 0.00 in0.0 mm 0.00 in0.0 mm 0.04 in1.0 mm
04:37 PM 62.6°F17.0°C 54.9°F12.7°C 76% 5.4 mph SSW8.7 kmh SSW 8.5 mph13.7 kmh 29.80 in1009.1 mb 0.00 in0.0 mm 0.00 in0.0 mm 0.04 in1.0 mm
04:42 PM 62.2°F16.8°C 54.9°F12.7°C 77% 4.3 mph WSW6.9 kmh WSW 8.5 mph13.7 kmh 29.80 in1009.1 mb 0.00 in0.0 mm 0.00 in0.0 mm 0.04 in1.0 mm
04:47 PM 62.2°F16.8°C 55.2°F12.9°C 78% 2.5 mph WSW4.0 kmh WSW 5.4 mph8.7 kmh 29.81 in1009.5 mb 0.00 in0.0 mm 0.00 in0.0 mm 0.04 in1.0 mm
04:52 PM 62.1°F16.7°C 55.0°F12.8°C 78% 2.2 mph SW3.5 kmh SW 5.4 mph8.7 kmh 29.80 in1009.1 mb 0.00 in0.0 mm 0.00 in0.0 mm 0.04 in1.0 mm
04:57 PM 61.9°F16.6°C 54.9°F12.7°C 78% 1.8 mph NW2.9 kmh NW 4.3 mph6.9 kmh 29.80 in1009.1 mb 0.00 in0.0 mm 0.00 in0.0 mm 0.04 in1.0 mm
05:02 PM 62.1°F16.7°C 55.0°F12.8°C 78% 3.1 mph SW5.0 kmh SW 6.3 mph10.1 kmh 29.80 in1009.1 mb 0.00 in0.0 mm 0.00 in0.0 mm 0.04 in1.0 mm
05:07 PM 61.9°F16.6°C 55.2°F12.9°C 79% 2.9 mph SW4.7 kmh SW 6.3 mph10.1 kmh 29.80 in1009.1 mb 0.00 in0.0 mm 0.00 in0.0 mm 0.04 in1.0 mm
05:12 PM 61.9°F16.6°C 55.2°F12.9°C 79% 2.0 mph SSW3.2 kmh SSW 5.4 mph8.7 kmh 29.81 in1009.5 mb 0.00 in0.0 mm 0.00 in0.0 mm 0.04 in1.0 mm
05:17 PM 61.7°F16.5°C 55.0°F12.8°C 79% 3.1 mph S5.0 kmh S 5.4 mph8.7 kmh 29.80 in1009.1 mb 0.00 in0.0 mm 0.00 in0.0 mm 0.04 in1.0 mm
05:22 PM 61.5°F16.4°C 54.9°F12.7°C 79% 2.0 mph SSW3.2 kmh SSW 5.4 mph8.7 kmh 29.80 in1009.1 mb 0.00 in0.0 mm 0.00 in0.0 mm 0.04 in1.0 mm
05:27 PM 61.5°F16.4°C 55.2°F12.9°C 80% 2.2 mph SW3.5 kmh SW 4.3 mph6.9 kmh 29.80 in1009.1 mb 0.00 in0.0 mm 0.00 in0.0 mm 0.04 in1.0 mm
05:32 PM 61.5°F16.4°C 55.2°F12.9°C 80% 2.2 mph SW3.5 kmh SW 4.3 mph6.9 kmh 29.80 in1009.1 mb 0.00 in0.0 mm 0.00 in0.0 mm 0.04 in1.0 mm
05:37 PM 61.5°F16.4°C 55.2°F12.9°C 80% 1.1 mph SW1.8 kmh SW 3.1 mph5.0 kmh 29.80 in1009.1 mb 0.00 in0.0 mm 0.00 in0.0 mm 0.04 in1.0 mm
05:42 PM 61.5°F16.4°C 55.2°F12.9°C 80% 0.4 mph SSW0.6 kmh SSW 2.0 mph3.2 kmh 29.80 in1009.1 mb 0.00 in0.0 mm 0.00 in0.0 mm 0.04 in1.0 mm
05:47 PM 61.5°F16.4°C 55.2°F12.9°C 80% 0.9 mph WSW1.4 kmh WSW 4.3 mph6.9 kmh 29.80 in1009.1 mb 0.00 in0.0 mm 0.00 in0.0 mm 0.04 in1.0 mm
05:52 PM 61.5°F16.4°C 55.2°F12.9°C 80% Calm Calm 1.1 mph1.8 kmh 29.80 in1009.1 mb 0.00 in0.0 mm 0.00 in0.0 mm 0.04 in1.0 mm
05:57 PM 61.5°F16.4°C 55.6°F13.1°C 81% 0.9 mph SW1.4 kmh SW 2.0 mph3.2 kmh 29.80 in1009.1 mb 0.00 in0.0 mm 0.00 in0.0 mm 0.04 in1.0 mm
06:02 PM 61.5°F16.4°C 55.2°F12.9°C 80% 0.7 mph SW1.1 kmh SW 3.1 mph5.0 kmh 29.80 in1009.1 mb 0.00 in0.0 mm 0.00 in0.0 mm 0.04 in1.0 mm
06:07 PM 61.5°F16.4°C 55.2°F12.9°C 80% 0.9 mph SSW1.4 kmh SSW 2.0 mph3.2 kmh 29.81 in1009.5 mb 0.00 in0.0 mm 0.00 in0.0 mm 0.04 in1.0 mm
06:12 PM 61.3°F16.3°C 55.0°F12.8°C 80% 0.7 mph W1.1 kmh W 2.0 mph3.2 kmh 29.80 in1009.1 mb 0.00 in0.0 mm 0.00 in0.0 mm 0.04 in1.0 mm
06:17 PM 61.3°F16.3°C 55.0°F12.8°C 80% 0.4 mph SW0.6 kmh SW 3.1 mph5.0 kmh 29.80 in1009.1 mb 0.00 in0.0 mm 0.00 in0.0 mm 0.04 in1.0 mm
06:22 PM 61.3°F16.3°C 55.0°F12.8°C 80% 1.3 mph SW2.1 kmh SW 2.0 mph3.2 kmh 29.80 in1009.1 mb 0.00 in0.0 mm 0.00 in0.0 mm 0.04 in1.0 mm
06:27 PM 61.2°F16.2°C 54.9°F12.7°C 80% 1.6 mph SW2.6 kmh SW 3.1 mph5.0 kmh 29.81 in1009.5 mb 0.00 in0.0 mm 0.00 in0.0 mm 0.04 in1.0 mm
06:32 PM 61.2°F16.2°C 54.9°F12.7°C 80% Calm Calm 3.1 mph5.0 kmh 29.81 in1009.5 mb 0.00 in0.0 mm 0.00 in0.0 mm 0.04 in1.0 mm
06:37 PM 61.2°F16.2°C 54.9°F12.7°C 80% Calm Calm 1.1 mph1.8 kmh 29.81 in1009.5 mb 0.00 in0.0 mm 0.00 in0.0 mm 0.04 in1.0 mm
06:42 PM 61.2°F16.2°C 54.9°F12.7°C 80% 0.7 mph SW1.1 kmh SW 2.0 mph3.2 kmh 29.81 in1009.5 mb 0.00 in0.0 mm 0.00 in0.0 mm 0.04 in1.0 mm
06:47 PM 61.2°F16.2°C 54.7°F12.6°C 79% 1.3 mph W2.1 kmh W 3.1 mph5.0 kmh 29.81 in1009.5 mb 0.00 in0.0 mm 0.00 in0.0 mm 0.04 in1.0 mm
06:52 PM 61.2°F16.2°C 54.9°F12.7°C 80% Calm Calm 1.1 mph1.8 kmh 29.81 in1009.5 mb 0.00 in0.0 mm 0.00 in0.0 mm 0.04 in1.0 mm
06:57 PM 61.0°F16.1°C 54.7°F12.6°C 80% 0.9 mph SW1.4 kmh SW 2.0 mph3.2 kmh 29.81 in1009.5 mb 0.00 in0.0 mm 0.00 in0.0 mm 0.04 in1.0 mm
07:02 PM 61.0°F16.1°C 54.7°F12.6°C 80% Calm Calm 2.0 mph3.2 kmh 29.81 in1009.5 mb 0.00 in0.0 mm 0.00 in0.0 mm 0.04 in1.0 mm
07:07 PM 61.0°F16.1°C 54.7°F12.6°C 80% Calm Calm 1.1 mph1.8 kmh 29.81 in1009.5 mb 0.00 in0.0 mm 0.00 in0.0 mm 0.04 in1.0 mm
07:12 PM 61.0°F16.1°C 54.7°F12.6°C 80% 0.2 mph SW0.3 kmh SW 1.1 mph1.8 kmh 29.82 in1009.8 mb 0.00 in0.0 mm 0.00 in0.0 mm 0.04 in1.0 mm
07:17 PM 61.0°F16.1°C 55.0°F12.8°C 81% Calm Calm -- 29.82 in1009.8 mb 0.00 in0.0 mm 0.00 in0.0 mm 0.04 in1.0 mm
07:22 PM 61.0°F16.1°C 55.0°F12.8°C 81% Calm Calm -- 29.82 in1009.8 mb 0.00 in0.0 mm 0.00 in0.0 mm 0.04 in1.0 mm
07:27 PM 60.8°F16.0°C 54.9°F12.7°C 81% 0.2 mph SW0.3 kmh SW 1.1 mph1.8 kmh 29.82 in1009.8 mb 0.00 in0.0 mm 0.00 in0.0 mm 0.04 in1.0 mm
07:32 PM 60.8°F16.0°C 55.2°F12.9°C 82% 0.2 mph SW0.3 kmh SW 2.0 mph3.2 kmh 29.82 in1009.8 mb 0.00 in0.0 mm 0.00 in0.0 mm 0.04 in1.0 mm
07:37 PM 60.8°F16.0°C 55.2°F12.9°C 82% Calm Calm 2.0 mph3.2 kmh 29.82 in1009.8 mb 0.00 in0.0 mm 0.00 in0.0 mm 0.04 in1.0 mm
07:42 PM 60.8°F16.0°C 55.2°F12.9°C 82% Calm Calm -- 29.82 in1009.8 mb 0.00 in0.0 mm 0.00 in0.0 mm 0.04 in1.0 mm
07:47 PM 60.6°F15.9°C 55.0°F12.8°C 82% Calm Calm -- 29.82 in1009.8 mb 0.00 in0.0 mm 0.00 in0.0 mm 0.04 in1.0 mm
07:52 PM 60.4°F15.8°C 54.9°F12.7°C 82% Calm Calm -- 29.82 in1009.8 mb 0.00 in0.0 mm 0.00 in0.0 mm 0.04 in1.0 mm
07:57 PM 60.4°F15.8°C 54.9°F12.7°C 82% Calm Calm -- 29.82 in1009.8 mb 0.00 in0.0 mm 0.00 in0.0 mm 0.04 in1.0 mm
08:02 PM 60.3°F15.7°C 54.7°F12.6°C 82% Calm Calm -- 29.82 in1009.8 mb 0.00 in0.0 mm 0.00 in0.0 mm 0.04 in1.0 mm
08:07 PM 60.1°F15.6°C 54.5°F12.5°C 82% Calm Calm -- 29.83 in1010.2 mb 0.00 in0.0 mm 0.00 in0.0 mm 0.04 in1.0 mm
08:12 PM 59.7°F15.4°C 54.5°F12.5°C 83% Calm Calm -- 29.83 in1010.2 mb 0.00 in0.0 mm 0.00 in0.0 mm 0.04 in1.0 mm
08:17 PM 59.5°F15.3°C 54.3°F12.4°C 83% Calm Calm -- 29.83 in1010.2 mb 0.00 in0.0 mm 0.00 in0.0 mm 0.04 in1.0 mm
08:22 PM 59.4°F15.2°C 54.5°F12.5°C 84% Calm Calm -- 29.83 in1010.2 mb 0.00 in0.0 mm 0.00 in0.0 mm 0.04 in1.0 mm
08:27 PM 59.2°F15.1°C 54.3°F12.4°C 84% Calm Calm -- 29.83 in1010.2 mb 0.00 in0.0 mm 0.00 in0.0 mm 0.04 in1.0 mm
08:32 PM 59.2°F15.1°C 54.3°F12.4°C 84% Calm Calm -- 29.83 in1010.2 mb 0.00 in0.0 mm 0.00 in0.0 mm 0.04 in1.0 mm
08:37 PM 59.0°F15.0°C 54.5°F12.5°C 85% Calm Calm -- 29.83 in1010.2 mb 0.00 in0.0 mm 0.00 in0.0 mm 0.04 in1.0 mm
08:42 PM 58.8°F14.9°C 54.3°F12.4°C 85% Calm Calm -- 29.83 in1010.2 mb 0.00 in0.0 mm 0.00 in0.0 mm 0.04 in1.0 mm
08:47 PM 58.8°F14.9°C 54.3°F12.4°C 85% Calm Calm -- 29.83 in1010.2 mb 0.00 in0.0 mm 0.00 in0.0 mm 0.04 in1.0 mm
08:52 PM 58.6°F14.8°C 54.1°F12.3°C 85% Calm Calm -- 29.83 in1010.2 mb 0.00 in0.0 mm 0.00 in0.0 mm 0.04 in1.0 mm
08:57 PM 58.8°F14.9°C 54.7°F12.6°C 86% Calm Calm -- 29.83 in1010.2 mb 0.00 in0.0 mm 0.00 in0.0 mm 0.04 in1.0 mm
09:02 PM 58.8°F14.9°C 54.7°F12.6°C 86% Calm Calm -- 29.83 in1010.2 mb 0.00 in0.0 mm 0.00 in0.0 mm 0.04 in1.0 mm
09:07 PM 58.6°F14.8°C 54.5°F12.5°C 86% Calm Calm -- 29.83 in1010.2 mb 0.00 in0.0 mm 0.00 in0.0 mm 0.04 in1.0 mm
09:12 PM 58.5°F14.7°C 54.3°F12.4°C 86% Calm Calm -- 29.83 in1010.2 mb 0.00 in0.0 mm 0.00 in0.0 mm 0.04 in1.0 mm
09:17 PM 58.3°F14.6°C 54.1°F12.3°C 86% Calm Calm -- 29.83 in1010.2 mb 0.00 in0.0 mm 0.00 in0.0 mm 0.04 in1.0 mm
09:22 PM 58.5°F14.7°C 54.7°F12.6°C 87% Calm Calm -- 29.84 in1010.5 mb 0.00 in0.0 mm 0.00 in0.0 mm 0.04 in1.0 mm
09:27 PM 58.6°F14.8°C 54.9°F12.7°C 87% Calm Calm -- 29.84 in1010.5 mb 0.00 in0.0 mm 0.00 in0.0 mm 0.04 in1.0 mm
09:32 PM 58.8°F14.9°C 55.0°F12.8°C 87% Calm Calm -- 29.84 in1010.5 mb 0.00 in0.0 mm 0.00 in0.0 mm 0.04 in1.0 mm
09:37 PM 58.8°F14.9°C 55.0°F12.8°C 87% Calm Calm -- 29.84 in1010.5 mb 0.00 in0.0 mm 0.00 in0.0 mm 0.04 in1.0 mm
09:42 PM 58.8°F14.9°C 55.0°F12.8°C 87% Calm Calm -- 29.83 in1010.2 mb 0.00 in0.0 mm 0.00 in0.0 mm 0.04 in1.0 mm
09:47 PM 58.8°F14.9°C 55.0°F12.8°C 87% Calm Calm -- 29.84 in1010.5 mb 0.00 in0.0 mm 0.00 in0.0 mm 0.04 in1.0 mm
09:52 PM 59.0°F15.0°C 55.2°F12.9°C 87% Calm Calm -- 29.83 in1010.2 mb 0.00 in0.0 mm 0.00 in0.0 mm 0.04 in1.0 mm
09:57 PM 58.8°F14.9°C 54.7°F12.6°C 86% Calm Calm -- 29.83 in1010.2 mb 0.00 in0.0 mm 0.00 in0.0 mm 0.04 in1.0 mm
10:02 PM 58.8°F14.9°C 54.7°F12.6°C 86% Calm Calm -- 29.83 in1010.2 mb 0.00 in0.0 mm 0.00 in0.0 mm 0.04 in1.0 mm
10:07 PM 58.8°F14.9°C 55.0°F12.8°C 87% Calm Calm -- 29.83 in1010.2 mb 0.00 in0.0 mm 0.00 in0.0 mm 0.04 in1.0 mm
10:12 PM 58.8°F14.9°C 55.0°F12.8°C 87% Calm Calm -- 29.83 in1010.2 mb 0.00 in0.0 mm 0.00 in0.0 mm 0.04 in1.0 mm
10:17 PM 58.8°F14.9°C 55.0°F12.8°C 87% Calm Calm -- 29.83 in1010.2 mb 0.00 in0.0 mm 0.00 in0.0 mm 0.04 in1.0 mm
10:22 PM 58.8°F14.9°C 55.0°F12.8°C 87% Calm Calm -- 29.83 in1010.2 mb 0.00 in0.0 mm 0.00 in0.0 mm 0.04 in1.0 mm
10:27 PM 58.8°F14.9°C 55.0°F12.8°C 87% Calm Calm -- 29.83 in1010.2 mb 0.00 in0.0 mm 0.00 in0.0 mm 0.04 in1.0 mm
10:32 PM 58.8°F14.9°C 55.0°F12.8°C 87% Calm Calm -- 29.83 in1010.2 mb 0.00 in0.0 mm 0.00 in0.0 mm 0.04 in1.0 mm
10:37 PM 58.8°F14.9°C 55.0°F12.8°C 87% Calm Calm 1.1 mph1.8 kmh 29.84 in1010.5 mb 0.00 in0.0 mm 0.00 in0.0 mm 0.04 in1.0 mm
10:42 PM 59.2°F15.1°C 55.4°F13.0°C 87% Calm Calm 1.1 mph1.8 kmh 29.84 in1010.5 mb 0.00 in0.0 mm 0.00 in0.0 mm 0.04 in1.0 mm
10:47 PM 59.4°F15.2°C 55.4°F13.0°C 87% Calm Calm -- 29.84 in1010.5 mb 0.00 in0.0 mm 0.00 in0.0 mm 0.04 in1.0 mm
10:52 PM 59.4°F15.2°C 55.2°F12.9°C 86% Calm Calm -- 29.84 in1010.5 mb 0.00 in0.0 mm 0.00 in0.0 mm 0.04 in1.0 mm
10:57 PM 59.5°F15.3°C 55.4°F13.0°C 86% Calm Calm -- 29.84 in1010.5 mb 0.00 in0.0 mm 0.00 in0.0 mm 0.04 in1.0 mm
11:02 PM 59.4°F15.2°C 55.2°F12.9°C 86% Calm Calm -- 29.84 in1010.5 mb 0.00 in0.0 mm 0.00 in0.0 mm 0.04 in1.0 mm
11:07 PM 59.4°F15.2°C 55.2°F12.9°C 86% Calm Calm -- 29.84 in1010.5 mb 0.00 in0.0 mm 0.00 in0.0 mm 0.04 in1.0 mm
11:12 PM 59.4°F15.2°C 55.2°F12.9°C 86% Calm Calm -- 29.84 in1010.5 mb 0.00 in0.0 mm 0.00 in0.0 mm 0.04 in1.0 mm
11:17 PM 59.4°F15.2°C 55.2°F12.9°C 86% Calm Calm -- 29.85 in1010.8 mb 0.00 in0.0 mm 0.00 in0.0 mm 0.04 in1.0 mm
11:22 PM 59.5°F15.3°C 55.4°F13.0°C 86% Calm Calm -- 29.85 in1010.8 mb 0.00 in0.0 mm 0.00 in0.0 mm 0.04 in1.0 mm
11:27 PM 59.5°F15.3°C 55.4°F13.0°C 86% Calm Calm -- 29.85 in1010.8 mb 0.00 in0.0 mm 0.00 in0.0 mm 0.04 in1.0 mm
11:32 PM 59.5°F15.3°C 55.4°F13.0°C 86% Calm Calm -- 29.85 in1010.8 mb 0.00 in0.0 mm 0.00 in0.0 mm 0.04 in1.0 mm
11:37 PM 59.4°F15.2°C 55.2°F12.9°C 86% Calm Calm -- 29.85 in1010.8 mb 0.00 in0.0 mm 0.00 in0.0 mm 0.04 in1.0 mm
11:42 PM 59.4°F15.2°C 55.2°F12.9°C 86% Calm Calm -- 29.85 in1010.8 mb 0.00 in0.0 mm 0.00 in0.0 mm 0.04 in1.0 mm
11:47 PM 59.4°F15.2°C 55.2°F12.9°C 86% Calm Calm -- 29.85 in1010.8 mb 0.00 in0.0 mm 0.00 in0.0 mm 0.04 in1.0 mm
11:52 PM 59.4°F15.2°C 55.2°F12.9°C 86% Calm Calm -- 29.85 in1010.8 mb 0.00 in0.0 mm 0.00 in0.0 mm 0.04 in1.0 mm
11:58 PM 59.4°F15.2°C 55.4°F13.0°C 87% Calm Calm -- 29.85 in1010.8 mb 0.00 in0.0 mm 0.00 in0.0 mm 0.04 in1.0 mm